Date,TemperatureHighF,TemperatureAvgF,TemperatureLowF,DewpointHighF,DewpointAvgF,DewpointLowF,HumidityHigh,HumidityAvg,HumidityLow,PressureMaxIn,PressureMinIn,WindSpeedMaxMPH,WindSpeedAvgMPH,GustSpeedMaxMPH,PrecipitationSumIn
2014-1-1,42.4,32.0,24.7,28.8,25.4,21.6,90,78,55,30.46,30.23,7,0,12,0.00
2014-1-2,45.4,35.0,19.3,43.4,31.5,9.7,97,87,62,30.24,29.75,16,3,31,0.14
2014-1-3,29.7,20.5,12.9,11.3,7.2,0.6,79,57,35,30.53,29.94,10,1,24,0.00
2014-1-4,40.6,26.8,12.5,33.1,20.1,7.5,92,77,38,30.57,30.36,10,1,20,0.00
2014-1-5,46.3,40.3,35.3,44.1,39.2,33.2,98,96,88,30.35,29.78,9,1,17,0.20
2014-1-6,44.5,22.4,2.1,43.2,13.7,-8.4,96,70,40,30.25,29.72,16,6,29,0.12
2014-1-7,25.3,10.2,-0.8,6.8,-2.0,-10.3,80,58,31,30.62,30.25,17,3,24,0.00
2014-1-8,43.7,24.5,9.3,20.0,13.4,5.3,87,66,33,30.72,30.58,6,0,14,0.00
2014-1-9,45.0,31.7,22.1,34.1,21.2,13.7,96,69,32,30.62,30.51,3,0,9,0.13
2014-1-10,49.2,42.6,35.3,48.4,41.9,34.2,98,97,96,30.54,30.12,2,0,4,0.89
2014-1-11,56.2,48.4,40.7,50.3,43.2,30.2,98,84,43,30.12,29.66,21,3,28,1.77
2014-1-12,52.7,40.0,30.4,34.5,28.6,23.8,92,65,33,30.23,29.83,14,4,27,0.00
2014-1-13,50.5,40.1,28.4,38.9,32.9,26.1,95,77,51,30.22,29.98,8,1,15,0.20
2014-1-14,51.0,41.5,27.9,41.3,33.7,24.6,97,77,37,30.04,29.83,12,2,23,0.09
2014-1-15,38.9,31.5,23.8,31.7,23.2,12.5,91,73,39,30.04,29.95,12,2,21,0.00
2014-1-16,39.3,26.8,14.8,18.7,14.0,4.3,90,62,24,30.12,30.00,13,2,20,0.00
2014-1-17,44.2,31.3,20.6,25.3,17.3,11.3,83,59,31,30.09,29.91,15,4,29,0.00
2014-1-18,36.8,25.2,16.7,14.8,9.7,3.5,71,53,26,30.15,29.99,14,4,25,0.00
2014-1-19,46.2,35.1,21.8,24.9,18.3,8.8,76,52,28,30.11,30.01,14,3,27,0.00
2014-1-20,59.0,45.3,29.0,26.1,17.8,4.0,76,36,18,30.02,29.88,13,4,26,0.00
2014-1-21,44.3,34.2,16.5,28.7,22.9,9.0,88,64,51,29.91,29.66,15,4,28,0.00
2014-1-22,30.4,19.8,8.6,9.1,3.1,-6.5,80,52,22,30.17,29.90,10,3,20,0.00
2014-1-23,31.4,20.0,10.6,8.9,3.7,-3.4,78,51,30,30.50,30.17,16,3,24,0.00
2014-1-24,26.7,14.1,0.0,0.2,-4.1,-7.4,72,46,28,30.68,30.36,7,1,12,0.00
2014-1-25,32.6,24.8,9.6,23.9,9.7,-10.2,84,55,22,30.36,29.84,18,8,35,0.00
2014-1-26,47.9,36.3,26.7,27.4,18.8,1.8,83,50,29,30.02,29.93,17,3,30,0.00
2014-1-27,49.8,40.9,26.9,34.7,28.3,14.9,78,61,44,30.07,29.92,14,3,24,0.00
2014-1-28,27.8,21.2,17.2,19.6,13.8,5.2,91,74,51,30.26,30.06,3,0,6,0.00
2014-1-29,27.6,17.7,8.0,14.9,9.5,4.4,91,72,39,30.44,30.22,5,0,10,0.16
2014-1-30,34.5,18.3,2.4,14.9,8.1,-0.8,88,67,38,30.49,30.35,3,0,10,0.02
2014-1-31,55.5,32.4,13.4,23.5,15.9,9.7,90,58,22,30.36,30.24,10,1,15,0.00
2014-2-1,55.0,36.7,23.1,28.6,21.2,13.8,87,60,21,30.30,30.20,6,0,10,0.00
2014-2-2,61.0,49.3,29.1,51.4,42.9,26.0,95,79,64,30.19,29.99,15,3,21,0.26
2014-2-3,60.8,51.4,35.2,54.3,45.6,33.4,96,82,42,30.19,29.85,14,4,25,0.92
2014-2-4,41.1,38.3,35.3,39.1,36.7,33.7,97,94,90,30.33,30.12,2,0,5,0.35
2014-2-5,54.7,43.2,29.5,47.7,36.4,24.1,98,79,48,30.13,29.90,20,4,28,0.49
2014-2-6,39.5,31.3,23.9,28.1,24.8,20.3,92,77,58,30.36,30.12,5,0,10,0.00
2014-2-7,46.4,34.8,27.0,32.9,28.6,25.3,94,79,56,30.38,30.28,8,1,14,0.00
2014-2-8,47.8,37.0,29.1,34.5,30.5,26.6,92,78,57,30.31,30.17,9,1,20,0.00
2014-2-9,49.9,38.6,27.2,35.9,31.7,25.4,100,77,55,30.22,30.06,13,3,20,0.00
2014-2-10,38.6,33.3,30.2,33.9,31.0,27.7,96,91,80,30.25,30.06,5,0,14,0.17
2014-2-11,31.7,29.7,28.2,29.3,28.2,26.5,96,94,89,30.38,30.23,2,0,5,0.06
2014-2-12,29.1,25.2,20.0,28.1,22.7,17.0,96,90,79,30.39,29.91,6,1,20,0.00
2014-2-13,41.4,31.9,27.7,31.3,26.9,20.3,95,82,56,29.90,29.72,14,2,26,0.53
2014-2-14,51.4,40.2,30.7,33.6,27.4,19.9,90,61,36,29.91,29.71,14,3,27,0.07
2014-2-15,42.6,34.8,27.0,33.4,22.1,13.6,95,62,33,30.12,29.60,16,5,25,0.04
2014-2-16,51.4,39.8,29.7,29.1,25.6,18.1,89,59,37,30.20,30.07,16,4,26,0.00
2014-2-17,46.9,37.2,26.4,34.8,28.4,23.1,92,72,51,30.34,30.20,8,1,16,0.02
2014-2-18,59.8,45.6,34.4,37.9,30.7,13.6,94,61,19,30.27,30.11,12,2,20,0.00
2014-2-19,64.0,51.8,42.4,54.4,46.0,38.5,98,83,47,30.13,29.97,13,2,23,0.66
2014-2-20,64.5,53.8,42.2,54.9,50.6,40.3,96,89,68,30.16,29.94,10,1,18,0.00
2014-2-21,58.3,49.8,32.7,54.7,34.0,13.6,95,61,22,30.05,29.79,15,5,32,0.99
2014-2-22,56.6,42.3,31.0,26.8,23.1,17.0,78,51,22,30.26,30.05,8,1,18,0.00
2014-2-23,64.2,46.1,29.6,34.3,28.6,23.3,80,54,28,30.19,30.00,8,1,18,0.00
2014-2-24,57.7,42.7,29.3,35.1,25.9,17.7,90,57,23,30.17,29.99,13,2,22,0.00
2014-2-25,57.5,41.8,29.2,34.5,26.3,21.8,78,57,33,30.15,29.96,16,3,26,0.00
2014-2-26,47.6,34.7,23.1,25.0,21.5,17.8,80,60,37,29.98,29.79,9,1,16,0.00
2014-2-27,49.0,31.3,15.7,17.9,10.7,1.9,90,50,19,30.07,29.89,15,2,23,0.00
2014-2-28,45.4,29.9,15.2,19.1,13.5,9.7,79,53,28,30.35,30.07,6,0,13,0.00
2014-3-1,52.1,39.3,27.5,34.2,27.5,18.0,81,63,47,30.38,30.26,8,1,14,0.00
2014-3-2,65.7,53.7,36.7,48.7,43.2,31.7,86,69,49,30.29,29.94,14,3,23,0.00
2014-3-3,56.1,45.5,30.1,51.0,41.9,28.9,96,88,63,30.13,29.74,9,1,20,0.70
2014-3-4,42.7,32.1,26.2,31.4,26.7,22.7,96,81,58,30.28,30.13,3,0,10,0.00
2014-3-5,55.0,38.6,27.8,32.5,28.7,21.7,92,71,31,30.26,30.14,6,1,12,0.00
2014-3-6,38.8,34.2,30.1,34.2,23.5,15.4,92,67,39,30.31,30.11,8,1,16,0.27
2014-3-7,51.1,40.1,32.3,41.1,35.8,30.7,95,85,65,30.10,30.00,7,1,16,0.33
2014-3-8,64.3,45.6,28.6,41.7,32.0,27.3,96,65,31,30.20,30.08,14,2,21,0.00
2014-3-9,64.9,53.0,39.5,40.1,34.4,27.1,70,51,27,30.13,30.04,13,4,20,0.00
2014-3-10,67.9,53.8,38.6,38.9,30.7,23.6,67,43,21,30.09,29.90,17,5,28,0.00
2014-3-11,73.2,59.3,42.7,43.2,35.3,26.3,66,43,22,29.92,29.72,14,2,23,0.00
2014-3-12,64.9,51.3,30.5,54.9,43.4,21.1,96,75,53,29.75,29.36,18,6,36,0.03
2014-3-13,44.1,33.7,26.0,22.8,11.2,6.9,74,41,22,30.31,29.75,17,5,30,0.00
2014-3-14,53.4,40.4,22.8,24.4,18.5,11.7,73,44,27,30.37,30.16,15,2,21,0.00
2014-3-15,63.8,52.4,40.3,35.5,31.9,24.1,68,47,29,30.16,30.03,14,3,23,0.00
2014-3-16,46.3,43.9,40.7,45.2,40.2,32.9,97,88,64,30.07,29.73,3,0,10,0.85
2014-3-17,40.5,36.2,32.0,39.6,35.3,31.2,97,97,95,29.95,29.75,2,0,6,0.46
2014-3-18,45.6,37.8,30.4,41.6,36.1,29.7,98,94,85,30.20,29.91,6,0,12,0.00
2014-3-19,48.1,41.9,39.4,43.5,40.3,38.4,97,94,77,30.21,30.05,6,1,15,0.01
2014-3-20,59.7,49.0,33.8,40.4,29.0,12.8,85,52,16,30.12,30.03,15,4,29,0.00
2014-3-21,58.1,44.1,27.3,31.0,25.2,20.6,81,51,25,30.23,30.12,9,1,17,0.00
2014-3-22,65.5,55.2,40.2,39.6,34.7,27.5,68,47,36,30.15,30.01,13,2,21,0.00
2014-3-23,64.6,64.6,64.6,38.4,38.4,38.4,38,38,38,30.01,30.01,3,3,0,0.00
2014-3-24,64.6,50.5,33.2,38.4,31.1,22.3,74,49,38,30.27,30.01,10,2,17,0.00
2014-3-25,40.1,33.1,24.4,34.3,24.6,10.5,97,72,47,30.12,29.89,16,4,32,0.04
2014-3-26,47.7,30.6,15.2,17.6,10.4,6.5,76,46,20,30.39,30.11,10,2,27,0.00
2014-3-27,52.6,37.7,23.0,28.1,19.3,14.6,75,51,27,30.50,30.34,13,2,21,0.00
2014-3-28,51.8,48.6,38.6,50.7,46.0,27.3,98,91,60,30.35,30.14,8,1,15,0.20
2014-3-29,57.6,51.0,40.0,56.0,48.6,30.7,98,92,69,30.14,29.69,15,2,32,0.79
2014-3-30,57.9,45.6,38.0,30.7,24.4,13.4,73,47,21,30.15,29.80,15,5,32,0.00
2014-3-31,69.4,50.9,29.8,35.5,26.6,16.4,76,44,20,30.24,30.13,9,1,18,0.00
2014-4-1,76.6,58.5,40.2,42.9,35.6,26.1,76,46,24,30.19,30.05,13,2,18,0.00
2014-4-2,77.0,61.0,41.0,44.5,35.4,24.8,77,43,18,30.14,30.06,12,2,21,0.00
2014-4-3,75.8,64.5,52.0,55.3,49.3,32.9,74,58,43,30.10,29.91,9,2,22,0.00
2014-4-4,69.5,59.7,49.0,55.4,49.4,43.5,93,70,44,29.93,29.81,15,4,28,0.00
2014-4-5,65.4,53.4,41.6,44.2,38.1,33.7,79,58,36,30.07,29.89,8,2,20,0.00
2014-4-6,57.2,47.8,41.8,41.2,35.5,28.6,90,63,46,30.18,30.06,7,1,12,0.04
2014-4-7,54.6,46.3,41.5,53.8,45.2,39.6,99,96,89,30.08,28.61,7,0,10,2.90
2014-4-8,56.3,48.0,38.1,51.7,38.8,32.8,96,72,51,29.82,29.69,9,2,17,0.01
2014-4-9,58.7,48.1,35.8,39.4,33.3,28.6,88,60,32,30.19,29.82,17,3,25,0.00
2014-4-10,66.2,49.6,30.2,39.6,33.8,27.1,90,58,34,30.33,30.19,13,1,20,0.00
2014-4-11,68.1,55.5,41.5,43.6,38.0,34.5,77,54,32,30.28,30.12,9,2,22,0.00
2014-4-12,74.4,61.3,45.7,48.3,44.3,39.8,85,56,34,30.24,30.12,9,2,17,0.00
2014-4-13,72.0,60.9,48.2,55.4,50.4,43.8,91,70,53,30.18,30.07,10,2,21,0.00
2014-4-14,62.9,57.9,55.6,57.3,54.5,51.5,95,89,72,30.06,29.81,9,2,16,0.34
2014-4-15,57.7,48.5,30.1,56.7,43.4,19.2,97,83,57,30.03,29.67,16,3,28,0.68
2014-4-16,55.5,37.9,22.6,27.9,22.4,14.1,91,58,26,30.47,30.03,9,1,16,0.00
2014-4-17,58.8,42.1,27.4,31.3,27.0,17.2,88,60,20,30.56,30.43,7,1,14,0.00
2014-4-18,52.8,45.3,38.6,44.2,36.4,29.6,92,72,57,30.49,30.24,3,0,10,0.44
2014-4-19,52.9,48.4,45.7,47.9,44.8,41.1,96,88,75,30.26,30.13,9,3,23,0.58
2014-4-20,66.0,54.2,43.2,41.5,38.0,33.0,87,57,31,30.33,30.22,8,2,21,0.00
2014-4-21,73.0,54.3,34.2,47.5,39.9,31.0,90,62,35,30.25,30.01,6,1,17,0.00
2014-4-22,64.5,56.9,47.9,56.4,50.0,43.2,92,78,61,30.01,29.79,12,2,18,0.03
2014-4-23,74.4,59.0,46.0,51.2,36.4,24.2,92,50,16,30.00,29.82,12,4,16,0.00
2014-4-24,67.3,51.9,35.4,40.0,34.8,30.2,83,56,31,30.15,30.00,9,1,17,0.00
2014-4-25,70.5,58.2,46.2,56.6,46.9,38.3,90,67,49,30.02,29.80,17,3,28,0.00
2014-4-26,73.5,58.9,40.1,44.3,40.5,36.8,88,55,29,30.07,29.93,9,2,20,0.00
2014-4-27,77.5,62.8,44.6,58.5,46.9,39.7,86,60,27,30.06,29.95,8,1,17,0.00
2014-4-28,72.3,64.5,56.2,62.1,58.4,54.6,96,82,60,30.00,29.82,7,1,17,0.04
2014-4-29,69.8,64.2,61.8,63.0,60.0,57.6,98,87,71,29.94,29.75,12,4,27,0.98
2014-4-30,65.4,61.1,58.7,59.0,58.0,55.4,97,90,76,29.96,29.86,12,2,22,0.14
2014-5-1,70.6,59.6,47.9,55.6,42.4,21.0,95,60,16,29.92,29.84,17,4,26,0.01
2014-5-2,65.1,53.4,42.1,42.0,37.5,30.1,80,56,30,29.98,29.87,13,2,17,0.00
2014-5-3,70.4,56.4,38.9,42.0,38.7,34.5,88,55,33,30.04,29.93,14,3,24,0.00
2014-5-4,79.5,64.7,48.7,46.7,42.7,39.6,73,47,27,30.08,29.97,16,4,32,0.00
2014-5-5,84.2,69.6,53.7,52.0,46.3,40.3,78,47,22,30.02,29.87,15,4,23,0.00
2014-5-6,83.9,70.4,58.1,53.8,48.5,37.6,76,48,21,29.97,29.86,15,3,27,0.00
2014-5-7,79.1,64.7,46.5,59.0,50.7,43.8,91,64,37,30.16,29.97,10,1,20,0.00
2014-5-8,79.9,66.0,50.5,57.9,52.3,46.7,89,64,35,30.23,30.13,10,2,20,0.00
2014-5-9,71.6,62.2,56.6,61.5,56.5,52.5,96,82,63,30.18,30.08,15,2,26,0.24
2014-5-10,67.4,60.9,54.7,62.3,58.0,53.6,98,90,79,30.13,30.06,9,1,20,0.09
2014-5-11,78.3,64.3,49.0,62.4,56.4,48.2,98,78,45,30.20,30.11,8,1,16,0.01
2014-5-12,78.7,66.0,53.7,65.7,60.4,52.4,97,83,63,30.22,30.13,8,1,16,0.00
2014-5-13,79.8,68.5,56.6,66.2,60.8,55.5,97,78,50,30.18,30.10,9,1,17,0.00
2014-5-14,75.2,66.1,54.9,62.2,58.7,53.8,97,79,55,30.16,29.99,7,1,31,0.72
2014-5-15,66.0,59.6,45.0,63.3,57.2,42.8,97,92,78,29.98,29.85,9,2,20,2.29
2014-5-16,59.3,46.4,37.0,44.0,39.2,35.2,97,78,46,30.17,29.93,16,3,30,0.04
2014-5-17,59.0,46.7,32.1,47.6,39.5,30.8,99,78,51,30.27,30.16,12,2,21,0.01
2014-5-18,51.4,47.8,44.0,49.4,46.1,42.1,97,94,89,30.29,30.24,3,0,6,0.21
2014-5-19,65.7,52.3,37.8,51.8,46.1,37.0,98,81,58,30.37,30.28,8,1,14,0.00
2014-5-20,71.7,59.2,44.8,61.8,53.2,43.7,99,82,62,30.33,30.16,12,2,20,0.00
2014-5-21,81.2,66.2,51.0,59.9,54.0,48.8,95,69,34,30.18,30.04,14,2,24,0.01
2014-5-22,83.7,72.0,61.3,62.3,58.7,55.0,80,64,46,30.10,29.91,13,4,23,0.00
2014-5-23,81.8,71.0,60.7,64.2,58.2,54.4,89,66,43,30.05,29.96,12,3,22,0.00
2014-5-24,75.0,64.5,52.1,63.3,57.6,50.3,95,79,61,30.13,30.02,6,1,15,0.00
2014-5-25,73.1,62.5,52.0,64.8,57.1,50.3,95,83,64,30.21,30.12,7,0,20,0.02
2014-5-26,80.0,65.8,53.2,65.7,58.8,51.8,96,80,53,30.23,30.12,8,1,16,0.00
2014-5-27,80.1,66.6,58.9,66.9,60.6,57.8,97,82,49,30.16,30.02,12,1,20,0.70
2014-5-28,79.2,64.6,54.1,67.4,60.2,53.3,98,87,50,30.09,30.02,15,0,23,0.11
2014-5-29,77.7,66.3,55.7,66.4,61.0,54.9,98,84,63,30.10,30.02,9,0,18,0.01
2014-5-30,77.8,64.7,59.0,67.4,62.0,57.6,97,91,63,30.11,30.05,6,0,10,0.28
2014-5-31,71.5,63.6,55.4,66.4,61.0,54.6,99,91,82,30.20,27.26,5,0,9,0.00
2014-6-1,68.5,62.7,59.5,60.8,59.2,57.5,96,88,74,30.30,30.20,5,0,9,0.01
2014-6-2,71.9,62.4,53.3,59.4,56.0,52.2,98,81,62,30.28,30.16,7,1,12,0.00
2014-6-3,76.6,65.4,52.2,66.2,59.5,50.8,96,82,65,30.18,30.03,5,0,10,0.00
2014-6-4,81.9,69.4,54.8,67.1,61.5,53.7,97,78,46,30.04,29.84,9,1,18,0.00
2014-6-5,79.0,71.6,64.2,65.8,63.1,59.6,96,76,55,29.86,29.76,13,3,22,0.33
2014-6-6,82.3,69.4,59.7,67.2,62.6,58.8,98,81,49,29.95,29.85,10,2,20,0.01
2014-6-7,76.5,68.1,59.0,69.5,63.8,57.6,96,87,70,29.99,29.91,7,0,15,0.03
2014-6-8,79.6,69.8,59.9,69.4,63.4,57.6,97,82,52,29.99,29.85,13,2,20,0.67
2014-6-9,79.7,68.1,55.1,68.3,59.9,53.6,97,77,50,29.95,29.87,9,2,16,0.00
2014-6-10,81.8,69.5,60.3,68.7,62.2,57.8,96,79,61,29.98,29.90,10,2,22,0.22
2014-6-11,75.4,66.1,59.0,65.8,62.0,57.9,98,87,63,29.97,29.83,10,1,17,0.22
2014-6-12,73.9,63.9,58.5,66.5,61.2,57.6,98,91,70,29.93,29.85,6,0,12,0.54
2014-6-13,76.9,64.1,55.6,67.3,59.8,54.7,98,87,55,29.97,29.87,12,2,26,0.17
2014-6-14,77.4,65.7,52.3,68.2,60.7,51.5,98,85,64,30.10,29.97,5,0,12,0.03
2014-6-15,80.3,69.3,58.1,67.9,63.0,57.3,98,82,59,30.18,30.09,7,0,14,0.00
2014-6-16,81.5,70.7,63.4,70.2,65.9,61.6,95,85,64,30.21,30.13,7,0,12,0.00
2014-6-17,86.0,71.9,59.4,70.2,63.3,55.2,97,77,37,30.22,30.11,10,1,15,0.00
2014-6-18,82.9,71.4,61.9,69.8,64.9,60.5,96,81,55,30.16,30.09,6,0,13,0.00
2014-6-19,83.6,72.2,59.9,70.0,65.1,58.5,97,79,56,30.16,30.08,6,1,12,0.00
2014-6-20,83.7,76.4,65.0,70.7,67.5,63.0,94,74,61,30.10,27.27,8,1,13,0.00
2014-6-21,83.0,71.3,61.8,69.9,63.3,60.3,96,78,48,30.00,29.86,8,1,14,0.00
2014-6-22,83.5,71.3,57.8,66.4,61.2,56.4,97,73,49,29.97,29.87,6,0,12,0.00
2014-6-23,76.9,69.7,63.7,70.1,64.7,60.3,96,85,73,30.11,29.96,3,0,10,0.77
2014-6-24,76.5,67.6,61.3,68.7,64.6,60.4,98,90,74,30.11,30.01,6,0,12,0.02
2014-6-25,80.5,69.6,60.5,66.8,63.0,59.4,97,81,58,30.04,29.97,10,2,20,0.01
2014-6-26,82.2,71.4,59.8,68.2,62.7,58.1,95,76,50,30.06,29.96,6,0,12,0.00
2014-6-27,78.9,70.5,64.8,68.1,65.1,62.8,94,84,63,30.12,29.98,5,0,7,0.00
2014-6-28,76.1,67.6,63.5,68.4,65.1,62.0,97,92,72,30.23,30.11,5,0,13,1.71
2014-6-29,78.6,68.5,61.6,70.1,65.3,60.1,100,90,73,30.25,30.13,8,1,16,0.03
2014-6-30,76.8,66.8,59.0,69.9,64.2,57.9,98,92,68,30.15,30.00,3,0,10,0.44
2014-7-1,83.9,72.5,60.8,72.2,66.8,60.2,99,84,61,30.03,29.91,8,1,14,0.01
2014-7-2,86.0,73.0,62.0,74.3,66.9,60.8,97,83,50,29.98,29.94,8,1,18,0.26
2014-7-3,82.0,70.7,60.8,70.5,64.4,54.8,98,82,58,30.00,29.90,9,0,16,0.02
2014-7-4,78.5,66.9,54.4,59.3,54.8,49.9,95,68,37,30.21,30.00,6,1,13,0.00
2014-7-5,76.4,62.4,48.2,60.4,53.7,46.6,95,75,53,30.32,30.21,6,1,12,0.00
2014-7-6,78.3,66.2,52.9,62.9,57.6,51.1,95,76,52,30.23,30.08,8,0,13,0.00
2014-7-7,79.6,68.7,55.9,68.9,62.8,54.5,96,82,66,30.11,29.97,7,1,15,0.00
2014-7-8,82.5,69.9,57.1,66.6,62.0,55.1,95,78,53,30.06,27.20,13,3,21,0.50
2014-7-9,79.4,70.3,63.6,67.1,64.5,62.0,96,83,61,30.06,28.80,9,2,16,0.37
2014-7-10,75.9,68.0,62.2,69.2,64.5,61.0,97,89,72,30.14,30.00,5,0,12,0.06
2014-7-11,79.1,70.0,60.2,69.6,65.1,59.3,97,85,66,30.22,30.11,5,0,9,0.01
2014-7-12,82.1,71.5,62.4,69.3,65.7,61.4,97,83,60,30.23,30.14,7,0,14,0.00
2014-7-13,81.8,71.4,62.0,72.1,66.5,60.7,97,86,56,30.16,30.04,9,1,14,0.10
2014-7-14,82.3,71.6,61.6,71.5,66.7,60.7,98,86,63,30.06,29.91,8,1,17,0.02
2014-7-15,79.8,71.0,63.6,66.7,64.9,62.1,96,82,61,29.93,29.78,8,2,18,0.00
2014-7-16,76.7,65.6,55.8,63.6,58.7,54.1,97,80,52,29.98,29.83,5,0,10,0.00
2014-7-17,75.4,64.9,56.4,62.3,57.1,53.8,92,77,58,30.11,29.97,7,0,13,0.00
2014-7-18,66.5,63.3,59.0,64.4,61.7,56.1,97,95,90,30.19,30.11,3,0,7,0.68
2014-7-19,65.0,65.0,65.0,63.5,63.5,63.5,95,95,95,30.18,30.18,0,0,0,0.00
2014-7-20,65.0,65.0,65.0,63.5,63.5,63.5,95,95,95,30.18,30.18,0,0,0,0.00
2014-7-21,65.0,65.0,65.0,63.5,63.5,63.5,95,95,95,30.18,30.18,0,0,0,0.00
2014-7-22,78.4,69.0,65.0,69.6,65.8,63.5,96,90,72,30.18,30.09,6,0,12,0.02
2014-7-23,79.1,69.1,60.3,71.5,66.1,59.6,98,91,70,30.14,29.97,7,0,13,0.10
2014-7-24,82.1,71.5,64.5,71.2,66.4,63.6,98,85,60,29.98,29.88,10,1,21,0.02
2014-7-25,78.7,69.7,62.3,68.1,64.7,61.4,98,85,65,30.06,29.96,7,1,14,0.00
2014-7-26,81.7,70.6,59.0,67.6,63.7,57.6,97,80,58,30.06,29.98,6,0,13,0.00
2014-7-27,86.5,74.6,66.8,74.1,66.2,58.4,94,76,56,30.01,29.84,12,2,17,0.00
2014-7-28,78.0,70.6,58.6,66.9,60.7,55.4,96,73,49,29.94,29.82,16,4,29,0.08
2014-7-29,76.0,62.7,51.2,59.8,55.1,49.8,96,78,48,30.05,29.92,8,0,15,0.00
2014-7-30,74.8,61.5,47.2,60.8,54.1,45.6,95,79,53,30.12,30.05,8,0,12,0.00
2014-7-31,66.5,61.8,56.5,61.8,58.5,54.8,95,89,79,30.16,30.10,3,0,7,0.13
2014-8-1,72.3,64.1,59.4,64.3,60.6,58.0,97,89,73,30.16,30.07,9,1,16,0.16
2014-8-2,72.9,63.8,57.8,65.8,61.5,56.7,97,92,75,30.14,30.08,3,0,8,0.67
2014-8-3,77.9,67.0,57.5,68.0,62.6,56.9,99,87,63,30.15,30.05,6,0,12,0.11
2014-8-4,78.3,65.9,60.2,67.2,62.5,59.1,97,90,60,30.12,30.05,5,0,8,0.47
2014-8-5,78.3,66.9,57.7,69.4,63.0,56.9,98,88,58,30.11,30.03,7,1,12,0.60
2014-8-6,80.9,67.6,53.9,65.9,60.8,53.1,98,81,55,30.08,29.99,10,1,20,0.01
2014-8-7,82.6,68.9,59.0,70.9,63.8,57.9,97,85,56,30.07,29.98,5,0,7,0.00
2014-8-8,71.2,65.3,62.4,67.5,63.9,61.1,98,95,87,30.13,30.03,3,0,5,0.77
2014-8-9,77.0,69.8,63.6,71.0,67.0,63.0,98,91,75,30.10,29.98,5,0,14,0.64
2014-8-10,72.1,66.6,64.1,68.0,65.2,63.2,98,95,85,30.08,29.98,3,0,7,0.09
2014-8-11,76.3,68.1,62.5,70.0,65.9,61.9,98,93,80,30.08,29.94,6,0,13,0.02
2014-8-12,81.8,72.5,64.4,69.1,65.9,62.7,97,81,58,29.97,29.80,9,2,16,0.01
2014-8-13,76.2,66.4,54.7,63.0,58.5,53.3,96,77,55,30.03,29.85,5,0,10,0.00
2014-8-14,75.3,63.8,51.6,64.0,58.3,50.2,97,83,63,30.09,30.01,7,1,12,0.00
2014-8-15,79.1,66.7,55.5,65.8,61.0,54.4,98,83,58,30.07,29.99,8,0,15,0.00
2014-8-16,79.1,67.6,55.0,66.2,60.8,53.9,97,81,54,30.08,30.01,6,0,12,0.00
2014-8-17,81.2,69.9,59.1,68.9,63.3,57.8,96,81,56,30.07,29.96,8,1,15,0.00
2014-8-18,79.5,70.6,64.6,67.7,64.9,62.5,97,83,63,29.98,29.83,12,2,25,0.13
2014-8-19,82.9,71.5,61.3,69.8,64.9,59.9,96,81,52,29.92,29.84,10,2,16,0.00
2014-8-20,86.2,72.2,60.0,72.5,65.6,58.9,97,81,51,30.12,29.92,8,1,15,0.01
2014-8-21,85.7,72.8,62.0,71.5,65.3,59.3,95,78,53,30.13,30.05,8,1,14,0.00
2014-8-22,87.2,74.6,64.5,71.8,66.8,62.8,96,78,54,30.11,29.97,9,1,20,0.00
2014-8-23,81.5,70.6,62.9,74.9,67.2,61.4,96,89,73,30.01,29.90,3,0,8,0.37
2014-8-24,75.8,69.3,63.5,68.9,65.6,61.7,97,89,76,30.10,29.93,6,1,13,0.01
2014-8-25,74.2,65.9,60.3,65.0,61.2,57.3,96,86,72,30.16,30.06,6,1,13,0.04
2014-8-26,79.3,65.6,50.7,66.9,59.2,49.6,97,81,57,30.19,30.08,3,0,9,0.00
2014-8-27,81.2,68.6,51.7,66.6,60.4,50.6,97,77,48,30.14,30.03,5,0,9,0.00
2014-8-28,83.8,67.6,55.0,68.9,60.9,53.6,96,81,51,30.09,30.01,5,0,12,0.01
2014-8-29,82.7,70.2,59.0,68.9,63.8,57.9,97,82,53,30.15,30.05,3,0,10,0.00
2014-8-30,81.7,70.7,59.7,70.7,65.7,58.6,97,85,61,30.19,30.10,5,0,13,0.02
2014-8-31,80.5,71.2,64.0,72.6,68.3,63.3,98,91,74,30.16,30.08,6,0,12,0.73
2014-9-1,82.7,71.2,63.0,72.6,66.6,62.1,98,87,58,30.14,30.06,6,0,14,0.00
2014-9-2,83.9,72.9,63.2,71.6,67.0,62.0,97,83,55,30.12,29.96,7,1,13,0.02
2014-9-3,80.8,71.8,63.6,70.5,66.7,62.5,97,85,61,30.10,29.98,7,1,12,0.12
2014-9-4,79.3,70.0,64.8,70.3,66.7,63.9,98,90,70,30.19,30.08,166,1,12,0.38
2014-9-5,80.5,70.5,62.6,70.5,66.4,61.7,99,88,66,30.22,30.09,6,0,12,0.00
2014-9-6,80.5,69.3,60.9,71.0,66.0,60.0,98,90,65,30.11,29.99,6,0,12,0.04
2014-9-7,80.5,69.2,59.1,69.0,64.6,58.2,98,86,63,30.07,29.98,123,1,255,0.88
2014-9-8,67.1,67.1,67.1,65.0,65.0,65.0,93,93,93,30.18,30.03,0,0,255,0.00
2014-9-9,67.1,45.0,32.0,65.0,42.6,29.4,93,91,90,30.20,27.26,0,0,255,0.00
2014-9-10,73.5,53.7,32.0,66.1,49.8,29.4,93,87,74,30.18,27.27,5,0,255,0.00
2014-9-11,80.1,70.5,63.8,71.0,67.0,62.6,97,89,69,30.07,29.98,12,1,16,0.14
2014-9-12,79.5,69.8,63.1,71.2,67.3,62.2,98,92,74,30.06,29.99,5,0,9,0.04
2014-9-13,80.5,69.4,63.5,71.2,66.4,62.3,99,91,65,30.15,30.02,6,0,10,0.02
2014-9-14,66.6,62.7,60.5,62.5,61.1,59.3,98,95,86,30.23,30.14,3,0,10,0.02
2014-9-15,75.0,63.8,58.2,67.8,62.1,57.6,100,95,76,30.23,30.13,5,1,12,0.62
2014-9-16,79.0,67.8,59.9,67.5,63.3,59.3,98,86,62,30.15,29.95,8,1,16,0.04
2014-9-17,72.6,64.7,58.4,64.4,61.3,57.6,98,89,72,29.99,29.89,7,0,12,0.00
2014-9-18,71.7,63.2,57.1,62.6,59.6,56.3,98,89,68,30.06,29.92,5,0,12,0.00
2014-9-19,68.7,63.2,60.2,62.5,59.8,56.1,97,89,76,30.23,30.06,6,0,10,0.01
2014-9-20,73.3,64.3,55.7,61.8,57.5,54.3,95,80,55,30.23,30.05,5,0,9,0.00
2014-9-21,77.4,64.1,50.6,64.4,58.5,49.5,97,83,60,30.08,29.91,13,2,21,0.03
2014-9-22,71.0,60.5,49.3,61.4,53.2,46.8,97,79,51,30.18,29.94,5,0,10,0.01
2014-9-23,63.9,53.2,44.1,54.6,48.5,42.8,96,85,67,30.33,30.18,6,1,14,0.01
2014-9-24,69.5,59.0,46.9,56.0,47.1,36.4,96,69,40,30.37,30.28,5,1,13,0.00
2014-9-25,70.1,62.8,57.3,62.6,58.6,56.0,96,87,75,30.29,30.17,7,1,13,0.02
2014-9-26,67.5,62.8,59.7,60.7,58.8,57.2,95,87,76,30.22,30.16,5,1,13,0.00
2014-9-27,71.0,63.4,59.7,60.2,57.1,55.4,88,80,65,30.24,30.15,8,1,12,0.00
2014-9-28,71.9,62.2,52.9,63.0,57.4,51.5,95,85,61,30.22,30.10,5,0,8,0.00
2014-9-29,67.7,61.8,57.5,63.4,60.3,56.7,98,95,84,30.10,29.97,3,0,7,0.21
2014-9-30,76.0,61.1,48.4,64.9,57.7,47.9,98,89,61,30.01,29.91,5,0,7,0.01
2014-10-1,74.2,62.6,50.7,63.1,58.1,49.9,98,86,66,30.08,29.97,7,0,12,0.00
2014-10-2,73.7,61.3,50.6,62.8,56.4,49.8,98,85,58,30.15,30.06,5,0,12,0.01
2014-10-3,68.6,61.9,54.7,65.3,60.1,53.6,97,94,81,30.08,29.82,6,1,13,0.88
2014-10-4,58.0,49.5,34.7,55.3,38.9,29.5,97,69,40,29.98,29.80,16,4,24,0.00
2014-10-5,60.7,44.2,29.7,42.4,33.4,27.4,94,71,30,30.12,28.94,15,2,23,0.00
2014-10-6,62.5,50.0,37.1,54.6,45.8,35.8,97,86,66,30.14,30.05,8,1,16,0.29
2014-10-7,64.8,57.8,51.0,59.5,54.7,48.9,97,90,76,30.15,30.03,7,1,16,0.25
2014-10-8,75.1,65.0,58.4,60.4,54.7,48.3,98,72,41,30.12,30.03,14,3,25,0.02
2014-10-9,73.5,62.2,50.0,61.5,54.2,47.7,97,77,47,30.18,30.10,5,1,13,0.15
2014-10-10,74.2,63.3,54.9,66.9,60.5,54.1,98,91,74,30.14,30.02,6,1,16,0.01
2014-10-11,73.0,63.9,55.7,65.9,60.4,54.6,98,89,68,30.08,29.97,8,1,15,0.12
2014-10-12,63.0,59.2,55.0,61.3,58.3,54.3,98,97,93,30.22,30.05,2,0,5,0.28
2014-10-13,66.4,60.5,54.6,63.3,59.3,54.0,99,96,86,30.24,30.09,7,1,20,0.36
2014-10-14,64.7,62.3,53.3,63.9,61.0,50.7,97,96,88,30.09,28.36,10,3,30,4.22
2014-10-15,61.0,51.4,42.8,50.6,46.2,42.0,97,83,56,29.89,29.83,9,2,25,0.04
2014-10-16,59.0,52.8,46.6,49.2,47.5,45.0,100,83,68,29.88,29.82,14,2,22,0.02
2014-10-17,70.6,61.4,50.7,53.3,48.4,41.0,88,64,43,29.93,28.87,12,4,25,0.00
2014-10-18,66.8,59.1,49.4,53.7,47.9,39.3,87,67,46,29.99,29.83,12,4,24,0.00
2014-10-19,66.7,50.4,35.8,49.3,41.4,34.0,95,74,31,30.18,29.98,5,0,13,0.00
2014-10-20,63.1,52.3,37.6,52.1,46.8,36.5,97,83,65,30.17,30.03,9,1,15,0.02
2014-10-21,65.6,52.7,44.2,48.8,43.6,37.5,95,73,45,30.06,29.92,15,3,21,0.00
2014-10-22,60.5,47.9,33.8,40.3,35.8,31.3,92,65,35,30.18,30.02,12,1,20,0.00
2014-10-23,67.6,45.8,28.8,42.5,34.3,27.3,95,70,25,30.21,30.09,5,0,9,0.00
2014-10-24,63.8,48.8,33.2,46.7,38.2,30.5,93,71,30,30.16,30.06,5,0,10,0.00
2014-10-25,68.6,49.4,31.6,47.4,38.8,30.1,94,72,32,30.15,30.05,7,0,12,0.00
2014-10-26,76.1,60.7,47.3,53.5,46.8,39.7,94,65,28,30.08,29.96,12,2,20,0.00
2014-10-27,73.4,54.6,41.2,51.1,44.3,38.6,91,71,40,30.18,30.05,5,0,12,0.00
2014-10-28,73.8,58.6,46.6,57.9,49.3,44.7,98,75,40,30.18,30.08,10,1,20,0.00
2014-10-29,65.7,55.0,41.1,57.1,49.7,36.9,95,83,67,30.09,29.96,10,1,17,0.01
2014-10-30,59.9,44.2,29.8,41.3,35.4,28.3,95,75,40,30.13,30.02,3,0,12,0.00
2014-10-31,54.4,43.3,31.2,41.5,36.2,29.9,96,77,55,30.06,29.85,10,2,17,0.00
2014-11-1,41.5,35.6,31.5,30.6,27.0,22.8,88,71,62,30.21,29.80,20,5,36,0.01
2014-11-2,50.3,37.9,27.2,23.0,16.3,10.2,65,44,21,30.47,30.19,20,4,33,0.00
2014-11-3,61.8,38.2,23.4,32.2,21.7,14.6,81,57,20,30.57,30.46,3,0,10,0.00
2014-11-4,67.0,50.8,33.7,38.1,31.2,22.5,83,52,19,30.47,30.30,9,1,15,0.00
2014-11-5,60.2,53.1,46.0,50.3,40.8,28.1,89,65,42,30.33,30.17,10,1,16,0.00
2014-11-6,64.0,53.8,40.1,54.8,42.9,26.6,96,69,38,30.17,29.83,20,5,33,0.04
2014-11-7,56.9,43.0,31.0,35.9,31.1,28.1,89,64,42,30.11,29.96,10,1,17,0.00
2014-11-8,51.3,39.1,28.2,37.9,32.4,26.4,94,79,57,30.14,30.02,6,1,17,0.00
2014-11-9,60.8,42.8,29.2,41.4,34.9,27.7,95,77,46,30.12,30.01,6,0,12,0.00
2014-11-10,60.0,45.1,30.5,43.2,36.8,29.0,95,76,45,30.18,30.11,7,0,15,0.00
2014-11-11,66.9,44.9,28.4,41.8,34.2,26.9,95,72,27,30.16,30.03,5,0,10,0.01
2014-11-12,68.9,53.0,39.3,53.1,45.0,34.5,94,76,49,30.09,30.00,12,1,17,0.00
2014-11-13,53.6,40.3,31.6,45.9,37.6,29.0,97,90,70,30.10,29.99,8,1,16,0.02
2014-11-14,40.1,28.9,20.0,29.1,20.0,14.3,91,70,47,30.38,30.08,5,0,12,0.00
2014-11-15,39.5,26.6,15.8,22.0,17.5,12.6,89,70,47,30.52,30.37,3,0,12,0.00
2014-11-16,53.4,39.9,30.4,39.8,28.8,18.4,96,66,40,30.46,30.08,6,0,15,0.18
2014-11-17,55.1,40.4,24.4,53.4,36.3,16.7,98,86,69,30.07,29.69,14,3,23,1.51
2014-11-18,28.5,21.1,12.6,16.5,9.1,4.7,78,61,40,30.42,29.97,16,6,24,0.00
2014-11-19,36.7,25.3,9.2,19.0,12.3,4.7,85,60,28,30.50,30.35,9,1,14,0.00
2014-11-20,50.8,39.9,31.7,28.7,23.1,18.4,64,52,31,30.35,30.17,16,4,26,0.00
2014-11-21,53.9,39.0,26.8,26.6,23.0,19.7,81,55,33,30.58,30.27,6,1,13,0.00
2014-11-22,51.9,34.9,22.4,27.6,23.1,18.8,87,65,34,30.60,30.39,7,1,15,0.00
2014-11-23,50.9,46.3,42.0,50.4,43.2,26.0,98,90,49,30.39,29.77,6,0,15,2.74
2014-11-24,65.8,54.4,43.1,56.0,49.1,40.1,98,83,47,29.96,29.77,12,1,22,0.01
2014-11-25,54.7,47.0,42.7,42.9,36.1,32.5,78,66,47,30.14,29.95,9,2,14,0.00
2014-11-26,49.4,41.6,33.3,38.8,32.2,21.8,95,72,34,30.09,29.94,12,2,20,0.33
2014-11-27,37.6,33.5,25.5,31.8,26.2,20.7,89,75,62,30.36,30.00,14,4,25,0.01
2014-11-28,42.2,28.6,17.7,22.8,19.2,14.8,90,70,38,30.47,30.36,3,0,12,0.00
2014-11-29,51.6,40.4,27.5,33.7,27.1,20.5,79,60,42,30.37,30.28,5,1,16,0.00
2014-11-30,62.6,51.2,35.1,48.6,42.4,29.9,87,73,48,30.37,30.26,13,4,21,0.00
2014-12-1,63.5,50.4,36.6,50.4,44.1,35.0,95,81,57,30.44,30.34,14,2,20,0.00
2014-12-2,61.3,50.8,41.0,52.4,47.1,39.9,97,88,72,30.39,30.29,8,1,20,0.00
2014-12-3,62.0,53.3,45.7,52.5,47.6,42.4,96,82,62,30.33,30.23,13,2,21,0.00
2014-12-4,58.0,48.8,40.6,48.9,44.3,39.0,95,85,71,30.39,30.27,6,0,12,0.00
2014-12-5,51.3,47.2,44.6,49.9,45.9,43.8,98,95,87,30.45,30.35,2,0,6,0.07
2014-12-6,57.9,49.4,42.9,53.7,46.9,37.2,98,91,75,30.36,30.08,9,1,18,0.29
2014-12-7,53.0,42.9,30.5,37.5,27.1,15.3,91,57,28,30.43,30.19,10,1,21,0.00
2014-12-8,37.7,34.8,30.2,34.6,27.6,14.9,96,77,41,30.44,30.24,3,0,14,0.00
2014-12-9,40.5,33.8,26.5,35.3,29.1,23.7,97,84,65,30.24,30.09,6,0,17,0.01
2014-12-10,44.9,33.0,23.8,28.4,24.9,20.8,91,74,50,30.19,30.10,7,1,17,0.00
2014-12-11,48.7,30.5,20.7,24.6,20.2,17.0,92,69,32,30.30,30.11,7,0,13,0.00
2014-12-12,55.0,34.5,19.7,23.2,19.1,15.9,86,59,25,30.43,30.30,8,0,15,0.00
2014-12-13,60.6,38.4,23.7,24.4,20.2,16.7,83,54,19,30.33,30.20,7,0,13,0.00
2014-12-14,65.5,40.8,25.1,28.6,23.4,19.3,82,56,18,30.21,30.10,3,0,7,0.00
2014-12-15,56.8,40.2,26.4,37.7,28.4,21.3,89,66,37,30.18,30.10,6,0,10,0.00
2014-12-16,57.2,46.2,34.1,49.0,40.1,30.9,97,81,47,30.14,29.90,16,2,26,0.12
2014-12-17,55.1,39.4,26.0,37.4,30.6,24.0,95,75,31,30.23,30.10,5,0,13,0.01
2014-12-18,54.1,38.4,28.5,37.8,29.5,26.7,93,73,43,30.25,30.12,9,1,17,0.00
2014-12-19,48.9,38.6,25.7,36.0,31.6,23.4,93,77,59,30.26,30.16,6,0,12,0.00
2014-12-20,42.2,38.6,36.9,40.3,36.7,33.5,97,93,85,30.28,30.21,1,0,5,0.04
2014-12-21,46.5,39.5,35.9,41.4,37.9,35.1,98,94,78,30.31,30.19,7,0,12,0.01
2014-12-22,42.2,39.8,37.9,40.7,38.8,36.9,98,96,93,30.21,30.02,3,0,6,0.24
2014-12-23,50.0,44.7,39.4,49.5,44.1,38.6,99,98,97,30.08,29.90,3,0,10,1.61
2014-12-24,53.0,49.7,42.3,52.7,48.5,35.9,100,96,78,29.92,29.67,10,1,20,1.25
2014-12-25,51.8,39.5,28.0,35.7,31.2,26.2,93,73,45,30.33,29.77,13,2,22,0.00
2014-12-26,54.8,35.0,24.0,37.5,28.7,22.0,99,80,43,30.46,30.31,3,0,8,0.01
2014-12-27,63.0,45.0,30.4,39.5,31.7,22.1,98,66,21,30.42,30.25,6,0,12,0.00
2014-12-28,60.5,52.0,47.2,54.9,47.7,31.0,97,86,48,30.25,30.01,10,1,20,0.07
2014-12-29,54.0,49.4,46.5,50.5,47.7,45.5,97,94,87,30.14,30.03,3,0,10,0.32
2014-12-30,49.6,40.0,32.5,48.2,39.0,31.2,97,96,93,30.45,30.10,2,0,6,0.02
2014-12-31,42.6,33.2,25.3,35.9,29.9,23.6,97,88,69,30.51,30.40,7,0,12,0.00
2015-1-1,47.9,36.7,23.3,36.7,26.9,19.4,93,69,47,30.43,30.32,13,2,20,0.00
2015-1-2,51.1,46.9,43.1,47.1,42.6,36.1,97,85,76,30.37,30.28,9,2,16,0.20